sensor_id;sensor_type;location;lat;lon;timestamp;temperature;humidity
37050;DHT22;22958;51.232;6.826;2023-05-10T00:01:02;13.20;99.90
37050;DHT22;22958;51.232;6.826;2023-05-10T00:03:28;13.20;99.90
37050;DHT22;22958;51.232;6.826;2023-05-10T00:05:54;13.30;99.90
37050;DHT22;22958;51.232;6.826;2023-05-10T00:08:19;13.30;99.90
37050;DHT22;22958;51.232;6.826;2023-05-10T00:10:45;13.30;99.90
37050;DHT22;22958;51.232;6.826;2023-05-10T00:13:10;13.30;99.90
37050;DHT22;22958;51.232;6.826;2023-05-10T00:15:36;13.30;99.90
37050;DHT22;22958;51.232;6.826;2023-05-10T00:18:01;13.30;99.90
37050;DHT22;22958;51.232;6.826;2023-05-10T00:20:27;13.30;99.90
37050;DHT22;22958;51.232;6.826;2023-05-10T00:22:52;13.30;99.90
37050;DHT22;22958;51.232;6.826;2023-05-10T00:25:18;13.30;99.90
37050;DHT22;22958;51.232;6.826;2023-05-10T00:27:44;13.30;99.90
37050;DHT22;22958;51.232;6.826;2023-05-10T00:30:09;13.30;99.90
37050;DHT22;22958;51.232;6.826;2023-05-10T00:32:35;13.30;99.90
37050;DHT22;22958;51.232;6.826;2023-05-10T00:35:00;13.30;99.90
37050;DHT22;22958;51.232;6.826;2023-05-10T00:37:26;13.30;99.90
37050;DHT22;22958;51.232;6.826;2023-05-10T00:39:51;13.30;99.90
37050;DHT22;22958;51.232;6.826;2023-05-10T00:42:17;13.30;99.90
37050;DHT22;22958;51.232;6.826;2023-05-10T00:44:42;13.30;99.90
37050;DHT22;22958;51.232;6.826;2023-05-10T00:47:08;13.30;99.90
37050;DHT22;22958;51.232;6.826;2023-05-10T00:49:34;13.30;99.90
37050;DHT22;22958;51.232;6.826;2023-05-10T00:52:01;13.30;99.90
37050;DHT22;22958;51.232;6.826;2023-05-10T00:54:27;13.30;99.90
37050;DHT22;22958;51.232;6.826;2023-05-10T00:56:53;13.20;99.90
37050;DHT22;22958;51.232;6.826;2023-05-10T00:59:18;13.20;99.90
37050;DHT22;22958;51.232;6.826;2023-05-10T01:01:45;13.20;99.90
37050;DHT22;22958;51.232;6.826;2023-05-10T01:04:12;13.10;99.90
37050;DHT22;22958;51.232;6.826;2023-05-10T01:06:39;13.10;99.90
37050;DHT22;22958;51.232;6.826;2023-05-10T01:09:05;13.10;99.90
37050;DHT22;22958;51.232;6.826;2023-05-10T01:11:33;13.10;99.90
37050;DHT22;22958;51.232;6.826;2023-05-10T01:13:58;13.00;99.90
37050;DHT22;22958;51.232;6.826;2023-05-10T01:16:24;13.00;99.90
37050;DHT22;22958;51.232;6.826;2023-05-10T01:18:52;12.90;99.90
37050;DHT22;22958;51.232;6.826;2023-05-10T01:21:33;12.90;99.90
37050;DHT22;22958;51.232;6.826;2023-05-10T01:44:36;12.80;99.90
37050;DHT22;22958;51.232;6.826;2023-05-10T01:47:10;12.80;99.90
37050;DHT22;22958;51.232;6.826;2023-05-10T01:49:50;12.80;99.90
37050;DHT22;22958;51.232;6.826;2023-05-10T01:52:18;12.80;99.90
37050;DHT22;22958;51.232;6.826;2023-05-10T01:54:50;12.80;99.90
37050;DHT22;22958;51.232;6.826;2023-05-10T01:57:20;12.70;99.90
37050;DHT22;22958;51.232;6.826;2023-05-10T01:59:49;12.70;99.90
37050;DHT22;22958;51.232;6.826;2023-05-10T02:02:18;12.70;99.90
37050;DHT22;22958;51.232;6.826;2023-05-10T02:04:46;12.70;99.90
37050;DHT22;22958;51.232;6.826;2023-05-10T02:07:14;12.70;99.90
37050;DHT22;22958;51.232;6.826;2023-05-10T02:09:41;12.70;99.90
37050;DHT22;22958;51.232;6.826;2023-05-10T02:12:09;12.70;99.90
37050;DHT22;22958;51.232;6.826;2023-05-10T02:14:36;12.70;99.90
37050;DHT22;22958;51.232;6.826;2023-05-10T02:17:02;12.70;99.90
37050;DHT22;22958;51.232;6.826;2023-05-10T02:19:30;12.70;99.90
37050;DHT22;22958;51.232;6.826;2023-05-10T02:21:57;12.70;99.90
37050;DHT22;22958;51.232;6.826;2023-05-10T02:24:24;12.70;99.90
37050;DHT22;22958;51.232;6.826;2023-05-10T02:26:53;12.80;99.90
37050;DHT22;22958;51.232;6.826;2023-05-10T02:29:23;12.80;99.90
37050;DHT22;22958;51.232;6.826;2023-05-10T02:31:51;12.90;99.90
37050;DHT22;22958;51.232;6.826;2023-05-10T02:34:17;12.90;99.90
37050;DHT22;22958;51.232;6.826;2023-05-10T02:36:44;12.90;99.90
37050;DHT22;22958;51.232;6.826;2023-05-10T02:39:11;12.90;99.90
37050;DHT22;22958;51.232;6.826;2023-05-10T02:41:40;12.90;99.90
37050;DHT22;22958;51.232;6.826;2023-05-10T02:44:07;12.90;99.90
37050;DHT22;22958;51.232;6.826;2023-05-10T02:46:34;12.90;99.90
37050;DHT22;22958;51.232;6.826;2023-05-10T02:49:00;12.90;99.90
37050;DHT22;22958;51.232;6.826;2023-05-10T02:51:30;12.90;99.90
37050;DHT22;22958;51.232;6.826;2023-05-10T02:53:57;12.90;99.90
37050;DHT22;22958;51.232;6.826;2023-05-10T02:56:28;12.90;99.90
37050;DHT22;22958;51.232;6.826;2023-05-10T02:58:55;13.00;99.90
37050;DHT22;22958;51.232;6.826;2023-05-10T03:01:20;13.00;99.90
37050;DHT22;22958;51.232;6.826;2023-05-10T03:03:46;12.90;99.90
37050;DHT22;22958;51.232;6.826;2023-05-10T03:06:12;12.90;99.90
37050;DHT22;22958;51.232;6.826;2023-05-10T03:08:37;13.00;99.90
37050;DHT22;22958;51.232;6.826;2023-05-10T03:11:14;13.00;99.90
37050;DHT22;22958;51.232;6.826;2023-05-10T03:13:56;13.00;99.90
37050;DHT22;22958;51.232;6.826;2023-05-10T03:16:31;13.10;99.90
37050;DHT22;22958;51.232;6.826;2023-05-10T03:21:50;13.10;99.90
37050;DHT22;22958;51.232;6.826;2023-05-10T03:24:20;13.00;99.90
37050;DHT22;22958;51.232;6.826;2023-05-10T03:26:47;13.00;99.90
37050;DHT22;22958;51.232;6.826;2023-05-10T03:29:15;13.00;99.90
37050;DHT22;22958;51.232;6.826;2023-05-10T03:31:40;13.00;99.90
37050;DHT22;22958;51.232;6.826;2023-05-10T03:34:06;13.00;99.90
37050;DHT22;22958;51.232;6.826;2023-05-10T03:36:32;13.00;99.90
37050;DHT22;22958;51.232;6.826;2023-05-10T03:38:58;13.10;99.90
37050;DHT22;22958;51.232;6.826;2023-05-10T03:41:23;13.10;99.90
37050;DHT22;22958;51.232;6.826;2023-05-10T03:43:50;13.10;99.90
37050;DHT22;22958;51.232;6.826;2023-05-10T03:46:16;13.10;99.90
37050;DHT22;22958;51.232;6.826;2023-05-10T03:48:41;13.20;99.90
37050;DHT22;22958;51.232;6.826;2023-05-10T03:51:07;13.30;99.90
37050;DHT22;22958;51.232;6.826;2023-05-10T03:53:32;13.30;99.90
37050;DHT22;22958;51.232;6.826;2023-05-10T03:55:58;13.30;99.90
37050;DHT22;22958;51.232;6.826;2023-05-10T03:58:23;13.30;99.90
37050;DHT22;22958;51.232;6.826;2023-05-10T04:00:49;13.30;99.90
37050;DHT22;22958;51.232;6.826;2023-05-10T04:03:14;13.30;99.90
37050;DHT22;22958;51.232;6.826;2023-05-10T04:05:40;13.40;99.90
37050;DHT22;22958;51.232;6.826;2023-05-10T04:08:06;13.40;99.90
37050;DHT22;22958;51.232;6.826;2023-05-10T04:10:31;13.40;99.90
37050;DHT22;22958;51.232;6.826;2023-05-10T04:12:57;13.40;99.90
37050;DHT22;22958;51.232;6.826;2023-05-10T04:15:23;13.30;99.90
37050;DHT22;22958;51.232;6.826;2023-05-10T04:17:48;13.30;99.90
37050;DHT22;22958;51.232;6.826;2023-05-10T04:20:14;13.40;99.90
37050;DHT22;22958;51.232;6.826;2023-05-10T04:22:40;13.40;99.90
37050;DHT22;22958;51.232;6.826;2023-05-10T04:25:06;13.40;99.90
37050;DHT22;22958;51.232;6.826;2023-05-10T04:27:32;13.40;99.90
37050;DHT22;22958;51.232;6.826;2023-05-10T04:29:57;13.40;99.90
37050;DHT22;22958;51.232;6.826;2023-05-10T04:32:23;13.40;99.90
37050;DHT22;22958;51.232;6.826;2023-05-10T04:34:49;13.40;99.90
37050;DHT22;22958;51.232;6.826;2023-05-10T04:37:16;13.50;99.90
37050;DHT22;22958;51.232;6.826;2023-05-10T04:39:41;13.40;99.90
37050;DHT22;22958;51.232;6.826;2023-05-10T04:42:07;13.40;99.90
37050;DHT22;22958;51.232;6.826;2023-05-10T04:44:32;13.40;99.90
37050;DHT22;22958;51.232;6.826;2023-05-10T04:46:58;13.40;99.90
37050;DHT22;22958;51.232;6.826;2023-05-10T04:49:24;13.40;99.90
37050;DHT22;22958;51.232;6.826;2023-05-10T04:51:49;13.40;99.90
37050;DHT22;22958;51.232;6.826;2023-05-10T04:54:15;13.50;99.90
37050;DHT22;22958;51.232;6.826;2023-05-10T04:56:40;13.40;99.90
37050;DHT22;22958;51.232;6.826;2023-05-10T04:59:06;13.40;99.90
37050;DHT22;22958;51.232;6.826;2023-05-10T05:01:32;13.40;99.90
37050;DHT22;22958;51.232;6.826;2023-05-10T05:03:58;13.40;99.90
37050;DHT22;22958;51.232;6.826;2023-05-10T05:06:23;13.50;99.90
37050;DHT22;22958;51.232;6.826;2023-05-10T05:08:50;13.50;99.90
37050;DHT22;22958;51.232;6.826;2023-05-10T05:11:16;13.50;99.90
37050;DHT22;22958;51.232;6.826;2023-05-10T05:13:42;13.50;99.90
37050;DHT22;22958;51.232;6.826;2023-05-10T05:16:07;13.60;99.90
37050;DHT22;22958;51.232;6.826;2023-05-10T05:18:33;13.60;99.90
37050;DHT22;22958;51.232;6.826;2023-05-10T05:20:58;13.70;99.90
37050;DHT22;22958;51.232;6.826;2023-05-10T05:23:24;13.60;99.90
37050;DHT22;22958;51.232;6.826;2023-05-10T05:25:54;13.70;99.90
37050;DHT22;22958;51.232;6.826;2023-05-10T05:28:20;13.70;99.90
37050;DHT22;22958;51.232;6.826;2023-05-10T05:30:46;13.70;99.90
37050;DHT22;22958;51.232;6.826;2023-05-10T05:33:13;13.70;99.90
37050;DHT22;22958;51.232;6.826;2023-05-10T05:35:39;13.70;99.90
37050;DHT22;22958;51.232;6.826;2023-05-10T05:38:04;13.70;99.90
37050;DHT22;22958;51.232;6.826;2023-05-10T05:40:30;13.70;99.90
37050;DHT22;22958;51.232;6.826;2023-05-10T05:42:55;13.70;99.90
37050;DHT22;22958;51.232;6.826;2023-05-10T05:45:21;13.70;99.90
37050;DHT22;22958;51.232;6.826;2023-05-10T05:47:46;13.60;99.90
37050;DHT22;22958;51.232;6.826;2023-05-10T05:50:12;13.50;99.90
37050;DHT22;22958;51.232;6.826;2023-05-10T05:52:38;13.50;99.90
37050;DHT22;22958;51.232;6.826;2023-05-10T05:55:03;13.60;99.90
37050;DHT22;22958;51.232;6.826;2023-05-10T05:57:29;13.60;99.90
37050;DHT22;22958;51.232;6.826;2023-05-10T05:59:55;13.50;99.90
37050;DHT22;22958;51.232;6.826;2023-05-10T06:02:20;13.40;99.90
37050;DHT22;22958;51.232;6.826;2023-05-10T06:04:46;13.30;99.90
37050;DHT22;22958;51.232;6.826;2023-05-10T06:07:11;13.30;99.90
37050;DHT22;22958;51.232;6.826;2023-05-10T06:09:37;13.30;99.90
37050;DHT22;22958;51.232;6.826;2023-05-10T06:12:02;13.40;99.90
37050;DHT22;22958;51.232;6.826;2023-05-10T06:14:28;13.30;99.90
37050;DHT22;22958;51.232;6.826;2023-05-10T06:16:53;13.40;99.90
37050;DHT22;22958;51.232;6.826;2023-05-10T06:19:19;13.30;99.90
37050;DHT22;22958;51.232;6.826;2023-05-10T06:21:44;13.40;99.90
37050;DHT22;22958;51.232;6.826;2023-05-10T06:24:10;13.40;99.90
37050;DHT22;22958;51.232;6.826;2023-05-10T06:26:35;13.40;99.90
37050;DHT22;22958;51.232;6.826;2023-05-10T06:29:01;13.40;99.90
37050;DHT22;22958;51.232;6.826;2023-05-10T06:31:27;13.50;99.90
37050;DHT22;22958;51.232;6.826;2023-05-10T06:33:52;13.50;99.90
37050;DHT22;22958;51.232;6.826;2023-05-10T06:36:18;13.50;99.90
37050;DHT22;22958;51.232;6.826;2023-05-10T06:38:44;13.60;99.90
37050;DHT22;22958;51.232;6.826;2023-05-10T06:41:09;13.60;99.90
37050;DHT22;22958;51.232;6.826;2023-05-10T06:43:35;13.50;99.90
37050;DHT22;22958;51.232;6.826;2023-05-10T06:46:00;13.50;99.90
37050;DHT22;22958;51.232;6.826;2023-05-10T06:48:26;13.50;99.90
37050;DHT22;22958;51.232;6.826;2023-05-10T06:50:51;13.50;99.90
37050;DHT22;22958;51.232;6.826;2023-05-10T06:53:17;13.60;99.90
37050;DHT22;22958;51.232;6.826;2023-05-10T06:55:43;13.60;99.90
37050;DHT22;22958;51.232;6.826;2023-05-10T06:58:08;13.60;99.90
37050;DHT22;22958;51.232;6.826;2023-05-10T07:00:34;13.60;99.90
37050;DHT22;22958;51.232;6.826;2023-05-10T07:02:59;13.50;99.90
37050;DHT22;22958;51.232;6.826;2023-05-10T07:05:25;13.50;99.90
37050;DHT22;22958;51.232;6.826;2023-05-10T07:07:52;13.50;99.90
37050;DHT22;22958;51.232;6.826;2023-05-10T07:10:18;13.40;99.90
37050;DHT22;22958;51.232;6.826;2023-05-10T07:12:44;13.40;99.90
37050;DHT22;22958;51.232;6.826;2023-05-10T07:15:09;13.50;99.90
37050;DHT22;22958;51.232;6.826;2023-05-10T07:17:35;13.50;99.90
37050;DHT22;22958;51.232;6.826;2023-05-10T07:20:01;13.50;99.90
37050;DHT22;22958;51.232;6.826;2023-05-10T07:22:26;13.60;99.90
37050;DHT22;22958;51.232;6.826;2023-05-10T07:24:52;13.70;99.90
37050;DHT22;22958;51.232;6.826;2023-05-10T07:27:17;13.80;99.90
37050;DHT22;22958;51.232;6.826;2023-05-10T07:29:43;13.90;99.90
37050;DHT22;22958;51.232;6.826;2023-05-10T07:32:09;13.90;99.90
37050;DHT22;22958;51.232;6.826;2023-05-10T07:34:34;14.10;99.90
37050;DHT22;22958;51.232;6.826;2023-05-10T07:37:00;14.20;99.90
37050;DHT22;22958;51.232;6.826;2023-05-10T07:39:26;14.30;99.90
37050;DHT22;22958;51.232;6.826;2023-05-10T07:41:52;14.40;99.90
37050;DHT22;22958;51.232;6.826;2023-05-10T07:44:17;14.40;99.90
37050;DHT22;22958;51.232;6.826;2023-05-10T07:46:44;14.40;99.90
37050;DHT22;22958;51.232;6.826;2023-05-10T07:49:10;14.30;99.90
37050;DHT22;22958;51.232;6.826;2023-05-10T07:51:35;14.20;99.90
37050;DHT22;22958;51.232;6.826;2023-05-10T07:54:01;14.10;99.90
37050;DHT22;22958;51.232;6.826;2023-05-10T07:56:29;14.10;99.90
37050;DHT22;22958;51.232;6.826;2023-05-10T07:58:59;13.90;99.90
37050;DHT22;22958;51.232;6.826;2023-05-10T08:01:25;13.90;99.90
37050;DHT22;22958;51.232;6.826;2023-05-10T08:03:51;13.90;99.90
37050;DHT22;22958;51.232;6.826;2023-05-10T08:06:19;13.90;99.90
37050;DHT22;22958;51.232;6.826;2023-05-10T08:08:45;13.80;99.90
37050;DHT22;22958;51.232;6.826;2023-05-10T08:11:17;13.70;99.90
37050;DHT22;22958;51.232;6.826;2023-05-10T08:13:43;13.80;99.90
37050;DHT22;22958;51.232;6.826;2023-05-10T08:16:09;14.00;99.90
37050;DHT22;22958;51.232;6.826;2023-05-10T08:18:34;14.30;99.90
37050;DHT22;22958;51.232;6.826;2023-05-10T08:21:00;14.50;99.90
37050;DHT22;22958;51.232;6.826;2023-05-10T08:23:25;14.60;99.90
37050;DHT22;22958;51.232;6.826;2023-05-10T08:25:51;14.70;99.90
37050;DHT22;22958;51.232;6.826;2023-05-10T08:28:17;14.80;99.90
37050;DHT22;22958;51.232;6.826;2023-05-10T08:30:42;15.10;99.90
37050;DHT22;22958;51.232;6.826;2023-05-10T08:33:08;15.20;99.90
37050;DHT22;22958;51.232;6.826;2023-05-10T08:35:33;15.20;99.90
37050;DHT22;22958;51.232;6.826;2023-05-10T08:38:00;15.30;99.90
37050;DHT22;22958;51.232;6.826;2023-05-10T08:40:26;15.40;99.90
37050;DHT22;22958;51.232;6.826;2023-05-10T08:42:59;15.20;99.90
37050;DHT22;22958;51.232;6.826;2023-05-10T08:45:27;15.20;99.90
37050;DHT22;22958;51.232;6.826;2023-05-10T08:47:57;15.40;99.90
37050;DHT22;22958;51.232;6.826;2023-05-10T08:50:24;15.40;99.90
37050;DHT22;22958;51.232;6.826;2023-05-10T08:52:51;15.70;99.90
37050;DHT22;22958;51.232;6.826;2023-05-10T08:55:18;15.80;99.90
37050;DHT22;22958;51.232;6.826;2023-05-10T08:57:44;15.60;99.90
37050;DHT22;22958;51.232;6.826;2023-05-10T09:00:10;15.40;99.90
37050;DHT22;22958;51.232;6.826;2023-05-10T09:02:37;15.10;99.90
37050;DHT22;22958;51.232;6.826;2023-05-10T09:05:03;15.00;99.90
37050;DHT22;22958;51.232;6.826;2023-05-10T09:07:30;14.90;99.90
37050;DHT22;22958;51.232;6.826;2023-05-10T09:09:56;14.80;99.90
37050;DHT22;22958;51.232;6.826;2023-05-10T09:12:22;15.00;99.90
37050;DHT22;22958;51.232;6.826;2023-05-10T09:14:48;15.20;99.90
37050;DHT22;22958;51.232;6.826;2023-05-10T09:17:15;14.90;99.90
37050;DHT22;22958;51.232;6.826;2023-05-10T09:19:41;14.80;99.90
37050;DHT22;22958;51.232;6.826;2023-05-10T09:22:07;15.00;99.90
37050;DHT22;22958;51.232;6.826;2023-05-10T09:24:32;15.00;99.90
37050;DHT22;22958;51.232;6.826;2023-05-10T09:26:57;15.10;99.90
37050;DHT22;22958;51.232;6.826;2023-05-10T09:29:26;15.10;99.90
37050;DHT22;22958;51.232;6.826;2023-05-10T09:31:52;15.40;99.90
37050;DHT22;22958;51.232;6.826;2023-05-10T09:34:30;15.50;99.90
37050;DHT22;22958;51.232;6.826;2023-05-10T09:37:01;15.50;99.90
37050;DHT22;22958;51.232;6.826;2023-05-10T09:39:38;15.40;99.90
37050;DHT22;22958;51.232;6.826;2023-05-10T09:42:08;15.40;99.90
37050;DHT22;22958;51.232;6.826;2023-05-10T09:44:35;15.30;99.90
37050;DHT22;22958;51.232;6.826;2023-05-10T09:47:01;15.40;99.90
37050;DHT22;22958;51.232;6.826;2023-05-10T09:49:28;15.40;99.90
37050;DHT22;22958;51.232;6.826;2023-05-10T09:52:05;15.40;99.90
37050;DHT22;22958;51.232;6.826;2023-05-10T09:54:31;15.40;99.90
37050;DHT22;22958;51.232;6.826;2023-05-10T09:56:57;15.50;99.90
37050;DHT22;22958;51.232;6.826;2023-05-10T09:59:25;15.30;99.90
37050;DHT22;22958;51.232;6.826;2023-05-10T10:01:53;15.50;99.90
37050;DHT22;22958;51.232;6.826;2023-05-10T10:04:21;15.60;99.90
37050;DHT22;22958;51.232;6.826;2023-05-10T10:06:47;15.40;99.90
37050;DHT22;22958;51.232;6.826;2023-05-10T10:09:23;15.40;99.90
37050;DHT22;22958;51.232;6.826;2023-05-10T10:11:49;15.30;99.90
37050;DHT22;22958;51.232;6.826;2023-05-10T10:14:18;15.30;99.90
37050;DHT22;22958;51.232;6.826;2023-05-10T10:16:44;15.10;99.90
37050;DHT22;22958;51.232;6.826;2023-05-10T10:19:10;15.10;99.90
37050;DHT22;22958;51.232;6.826;2023-05-10T10:21:35;15.10;99.90
37050;DHT22;22958;51.232;6.826;2023-05-10T10:24:01;15.10;99.90
37050;DHT22;22958;51.232;6.826;2023-05-10T10:26:26;15.10;99.90
37050;DHT22;22958;51.232;6.826;2023-05-10T10:29:08;15.20;99.90
37050;DHT22;22958;51.232;6.826;2023-05-10T10:32:03;15.20;99.90
37050;DHT22;22958;51.232;6.826;2023-05-10T10:34:32;15.50;99.90
37050;DHT22;22958;51.232;6.826;2023-05-10T10:36:58;15.60;99.90
37050;DHT22;22958;51.232;6.826;2023-05-10T10:39:28;15.60;99.90
37050;DHT22;22958;51.232;6.826;2023-05-10T10:41:55;15.60;99.90
37050;DHT22;22958;51.232;6.826;2023-05-10T10:49:49;14.90;99.90
37050;DHT22;22958;51.232;6.826;2023-05-10T10:52:24;15.00;99.90
37050;DHT22;22958;51.232;6.826;2023-05-10T10:55:13;15.60;99.90
37050;DHT22;22958;51.232;6.826;2023-05-10T10:58:05;16.00;99.90
37050;DHT22;22958;51.232;6.826;2023-05-10T11:00:36;15.90;99.90
37050;DHT22;22958;51.232;6.826;2023-05-10T11:03:12;16.20;99.90
37050;DHT22;22958;51.232;6.826;2023-05-10T11:05:47;16.40;99.90
37050;DHT22;22958;51.232;6.826;2023-05-10T11:08:16;16.20;99.90
37050;DHT22;22958;51.232;6.826;2023-05-10T11:15:56;15.40;99.90
37050;DHT22;22958;51.232;6.826;2023-05-10T11:18:31;15.20;99.90
37050;DHT22;22958;51.232;6.826;2023-05-10T11:21:01;15.30;99.90
37050;DHT22;22958;51.232;6.826;2023-05-10T11:26:09;15.40;99.90
37050;DHT22;22958;51.232;6.826;2023-05-10T11:28:40;15.40;99.90
37050;DHT22;22958;51.232;6.826;2023-05-10T11:31:06;15.40;99.90
37050;DHT22;22958;51.232;6.826;2023-05-10T11:33:49;15.50;99.90
37050;DHT22;22958;51.232;6.826;2023-05-10T11:36:17;15.40;99.90
37050;DHT22;22958;51.232;6.826;2023-05-10T11:38:43;15.40;99.90
37050;DHT22;22958;51.232;6.826;2023-05-10T11:41:10;15.50;99.90
37050;DHT22;22958;51.232;6.826;2023-05-10T11:43:37;15.60;99.90
37050;DHT22;22958;51.232;6.826;2023-05-10T11:46:05;15.50;99.90
37050;DHT22;22958;51.232;6.826;2023-05-10T11:48:31;15.50;99.90
37050;DHT22;22958;51.232;6.826;2023-05-10T11:50:57;15.50;99.90
37050;DHT22;22958;51.232;6.826;2023-05-10T11:53:25;15.70;99.90
37050;DHT22;22958;51.232;6.826;2023-05-10T11:55:51;16.00;99.90
37050;DHT22;22958;51.232;6.826;2023-05-10T11:58:18;16.10;99.90
37050;DHT22;22958;51.232;6.826;2023-05-10T12:00:44;16.00;99.90
37050;DHT22;22958;51.232;6.826;2023-05-10T12:03:10;16.20;99.90
37050;DHT22;22958;51.232;6.826;2023-05-10T12:05:36;16.10;99.90
37050;DHT22;22958;51.232;6.826;2023-05-10T12:08:15;15.70;99.90
37050;DHT22;22958;51.232;6.826;2023-05-10T12:10:41;15.60;99.90
37050;DHT22;22958;51.232;6.826;2023-05-10T12:13:13;15.50;99.90
37050;DHT22;22958;51.232;6.826;2023-05-10T12:15:39;15.40;99.90
37050;DHT22;22958;51.232;6.826;2023-05-10T12:18:05;15.70;99.90
37050;DHT22;22958;51.232;6.826;2023-05-10T12:20:31;15.90;99.90
37050;DHT22;22958;51.232;6.826;2023-05-10T12:22:57;16.00;99.90
37050;DHT22;22958;51.232;6.826;2023-05-10T12:25:30;15.70;99.90
37050;DHT22;22958;51.232;6.826;2023-05-10T12:27:57;15.60;99.90
37050;DHT22;22958;51.232;6.826;2023-05-10T12:30:24;15.80;99.90
37050;DHT22;22958;51.232;6.826;2023-05-10T12:32:50;16.10;99.90
37050;DHT22;22958;51.232;6.826;2023-05-10T12:35:17;16.30;99.90
37050;DHT22;22958;51.232;6.826;2023-05-10T12:37:44;16.20;99.90
37050;DHT22;22958;51.232;6.826;2023-05-10T12:40:11;16.20;99.90
37050;DHT22;22958;51.232;6.826;2023-05-10T12:42:38;15.80;99.90
37050;DHT22;22958;51.232;6.826;2023-05-10T12:45:04;15.60;99.90
37050;DHT22;22958;51.232;6.826;2023-05-10T12:47:31;15.70;99.90
37050;DHT22;22958;51.232;6.826;2023-05-10T12:49:56;16.00;99.90
37050;DHT22;22958;51.232;6.826;2023-05-10T12:52:22;16.20;99.90
37050;DHT22;22958;51.232;6.826;2023-05-10T12:54:47;16.60;99.90
37050;DHT22;22958;51.232;6.826;2023-05-10T12:57:14;16.80;99.90
37050;DHT22;22958;51.232;6.826;2023-05-10T12:59:40;16.50;99.90
37050;DHT22;22958;51.232;6.826;2023-05-10T13:02:06;16.20;99.90
37050;DHT22;22958;51.232;6.826;2023-05-10T13:04:31;16.20;99.90
37050;DHT22;22958;51.232;6.826;2023-05-10T13:06:57;16.40;99.90
37050;DHT22;22958;51.232;6.826;2023-05-10T13:09:24;16.80;99.90
37050;DHT22;22958;51.232;6.826;2023-05-10T13:11:50;17.30;99.90
37050;DHT22;22958;51.232;6.826;2023-05-10T13:14:16;17.80;99.90
37050;DHT22;22958;51.232;6.826;2023-05-10T13:16:41;17.70;99.90
37050;DHT22;22958;51.232;6.826;2023-05-10T13:19:07;17.60;99.90
37050;DHT22;22958;51.232;6.826;2023-05-10T13:21:32;17.90;99.90
37050;DHT22;22958;51.232;6.826;2023-05-10T13:26:26;17.90;99.90
37050;DHT22;22958;51.232;6.826;2023-05-10T13:28:51;17.50;99.90
37050;DHT22;22958;51.232;6.826;2023-05-10T13:31:20;17.40;99.90
37050;DHT22;22958;51.232;6.826;2023-05-10T13:33:46;17.30;99.90
37050;DHT22;22958;51.232;6.826;2023-05-10T13:36:12;17.00;99.90
37050;DHT22;22958;51.232;6.826;2023-05-10T13:38:37;17.00;99.90
37050;DHT22;22958;51.232;6.826;2023-05-10T13:41:03;16.90;99.90
37050;DHT22;22958;51.232;6.826;2023-05-10T13:43:29;16.90;99.90
37050;DHT22;22958;51.232;6.826;2023-05-10T13:45:55;16.90;99.90
37050;DHT22;22958;51.232;6.826;2023-05-10T13:48:20;16.60;99.90
37050;DHT22;22958;51.232;6.826;2023-05-10T13:50:46;16.90;99.90
37050;DHT22;22958;51.232;6.826;2023-05-10T13:53:12;16.90;99.90
37050;DHT22;22958;51.232;6.826;2023-05-10T13:55:38;17.20;99.90
37050;DHT22;22958;51.232;6.826;2023-05-10T13:58:03;17.20;99.90
37050;DHT22;22958;51.232;6.826;2023-05-10T14:00:29;17.40;99.90
37050;DHT22;22958;51.232;6.826;2023-05-10T14:02:54;17.40;99.90
37050;DHT22;22958;51.232;6.826;2023-05-10T14:05:20;17.20;99.90
37050;DHT22;22958;51.232;6.826;2023-05-10T14:07:46;16.90;99.90
37050;DHT22;22958;51.232;6.826;2023-05-10T14:10:11;16.90;99.90
37050;DHT22;22958;51.232;6.826;2023-05-10T14:12:37;17.00;99.90
37050;DHT22;22958;51.232;6.826;2023-05-10T14:15:03;17.10;99.90
37050;DHT22;22958;51.232;6.826;2023-05-10T14:17:31;17.20;99.90
37050;DHT22;22958;51.232;6.826;2023-05-10T14:19:56;17.30;99.90
37050;DHT22;22958;51.232;6.826;2023-05-10T14:22:22;17.30;99.90
37050;DHT22;22958;51.232;6.826;2023-05-10T14:24:48;17.40;99.90
37050;DHT22;22958;51.232;6.826;2023-05-10T14:27:14;17.40;99.90
37050;DHT22;22958;51.232;6.826;2023-05-10T14:29:40;17.60;99.90
37050;DHT22;22958;51.232;6.826;2023-05-10T14:32:05;17.90;99.90
37050;DHT22;22958;51.232;6.826;2023-05-10T14:34:31;17.90;99.90
37050;DHT22;22958;51.232;6.826;2023-05-10T14:36:57;17.90;99.90
37050;DHT22;22958;51.232;6.826;2023-05-10T14:39:22;17.80;99.90
37050;DHT22;22958;51.232;6.826;2023-05-10T14:41:48;17.80;99.90
37050;DHT22;22958;51.232;6.826;2023-05-10T14:44:14;18.00;99.90
37050;DHT22;22958;51.232;6.826;2023-05-10T14:46:40;17.90;99.90
37050;DHT22;22958;51.232;6.826;2023-05-10T14:49:07;18.70;99.90
37050;DHT22;22958;51.232;6.826;2023-05-10T14:51:32;19.30;99.90
37050;DHT22;22958;51.232;6.826;2023-05-10T14:53:58;19.20;99.90
37050;DHT22;22958;51.232;6.826;2023-05-10T14:56:24;19.20;99.90
37050;DHT22;22958;51.232;6.826;2023-05-10T14:58:51;19.30;99.90
37050;DHT22;22958;51.232;6.826;2023-05-10T15:01:16;19.40;99.90
37050;DHT22;22958;51.232;6.826;2023-05-10T15:03:41;19.60;99.90
37050;DHT22;22958;51.232;6.826;2023-05-10T15:06:08;19.60;99.90
37050;DHT22;22958;51.232;6.826;2023-05-10T15:08:33;19.50;99.90
37050;DHT22;22958;51.232;6.826;2023-05-10T15:10:59;19.40;99.90
37050;DHT22;22958;51.232;6.826;2023-05-10T15:13:25;19.40;99.90
37050;DHT22;22958;51.232;6.826;2023-05-10T15:15:50;19.20;99.90
37050;DHT22;22958;51.232;6.826;2023-05-10T15:18:16;19.00;99.90
37050;DHT22;22958;51.232;6.826;2023-05-10T15:20:41;18.70;99.90
37050;DHT22;22958;51.232;6.826;2023-05-10T15:23:07;18.50;99.90
37050;DHT22;22958;51.232;6.826;2023-05-10T15:25:32;18.50;99.90
37050;DHT22;22958;51.232;6.826;2023-05-10T15:28:01;18.80;99.90
37050;DHT22;22958;51.232;6.826;2023-05-10T15:30:27;18.80;99.90
37050;DHT22;22958;51.232;6.826;2023-05-10T15:32:52;18.70;99.90
37050;DHT22;22958;51.232;6.826;2023-05-10T15:35:18;19.00;99.90
37050;DHT22;22958;51.232;6.826;2023-05-10T15:37:44;19.20;99.90
37050;DHT22;22958;51.232;6.826;2023-05-10T15:40:10;18.60;99.90
37050;DHT22;22958;51.232;6.826;2023-05-10T15:42:35;18.50;99.90
37050;DHT22;22958;51.232;6.826;2023-05-10T15:45:01;18.30;99.90
37050;DHT22;22958;51.232;6.826;2023-05-10T15:47:26;18.30;99.90
37050;DHT22;22958;51.232;6.826;2023-05-10T15:49:55;18.20;99.90
37050;DHT22;22958;51.232;6.826;2023-05-10T15:52:20;18.30;99.90
37050;DHT22;22958;51.232;6.826;2023-05-10T15:54:46;18.40;99.90
37050;DHT22;22958;51.232;6.826;2023-05-10T15:57:11;18.20;99.90
37050;DHT22;22958;51.232;6.826;2023-05-10T15:59:37;18.30;99.90
37050;DHT22;22958;51.232;6.826;2023-05-10T16:02:03;18.20;99.90
37050;DHT22;22958;51.232;6.826;2023-05-10T16:04:29;18.00;99.90
37050;DHT22;22958;51.232;6.826;2023-05-10T16:06:54;17.70;99.90